createdAt,value
2024-03-02T00:00:29.715Z,24.63
2024-03-02T00:02:56.886Z,23.42
2024-03-02T00:05:24.006Z,23.98
2024-03-02T00:07:58.872Z,23.92
2024-03-02T00:10:41.472Z,23.45
2024-03-02T00:13:09.619Z,24.80
2024-03-02T00:15:45.915Z,23.55
2024-03-02T00:18:15.622Z,24.20
2024-03-02T00:20:42.631Z,25.95
2024-03-02T00:23:14.777Z,24.05
2024-03-02T00:25:46.684Z,25.65
2024-03-02T00:28:30.793Z,25.92
2024-03-02T00:31:05.855Z,25.15
2024-03-02T00:33:45.932Z,25.83
2024-03-02T00:36:15.447Z,26.13
2024-03-02T00:38:50.934Z,24.70
2024-03-02T00:41:18.033Z,25.67
2024-03-02T00:43:49.019Z,25.05
2024-03-02T00:46:20.845Z,25.10
2024-03-02T00:51:17.734Z,25.60
2024-03-02T00:53:44.708Z,26.83
2024-03-02T00:56:13.125Z,25.67
2024-03-02T00:58:41.021Z,26.35
2024-03-02T01:01:08.555Z,27.17
2024-03-02T01:03:35.722Z,25.38
2024-03-02T01:06:03.445Z,25.80
2024-03-02T01:08:30.515Z,26.52
2024-03-02T01:10:57.794Z,24.98
2024-03-02T01:13:24.994Z,26.35
2024-03-02T01:15:52.513Z,25.70
2024-03-02T01:18:19.540Z,25.55
2024-03-02T01:20:46.671Z,25.92
2024-03-02T01:23:13.875Z,25.20
2024-03-02T01:25:41.167Z,24.80
2024-03-02T01:28:08.171Z,24.92
2024-03-02T01:30:35.020Z,25.63
2024-03-02T01:33:03.402Z,25.85
2024-03-02T01:35:30.316Z,26.83
2024-03-02T01:37:57.258Z,25.60
2024-03-02T01:40:27.611Z,26.30
2024-03-02T01:42:55.752Z,25.50
2024-03-02T01:45:23.310Z,26.20
2024-03-02T01:47:50.688Z,25.05
2024-03-02T01:50:26.256Z,24.20
2024-03-02T01:52:53.336Z,24.65
2024-03-02T01:55:20.149Z,25.42
2024-03-02T01:57:48.296Z,24.38
2024-03-02T02:00:16.113Z,25.23
2024-03-02T02:02:43.127Z,23.63
2024-03-02T02:05:10.359Z,24.85
2024-03-02T02:07:37.370Z,24.38
2024-03-02T02:10:04.904Z,24.75
2024-03-02T02:12:32.828Z,25.30
2024-03-02T02:15:00.198Z,24.73
2024-03-02T02:17:27.459Z,25.13
2024-03-02T02:19:54.613Z,25.08
2024-03-02T02:22:21.397Z,25.58
2024-03-02T02:24:48.264Z,26.33
2024-03-02T02:27:16.488Z,25.95
2024-03-02T02:29:43.493Z,24.95
2024-03-02T02:32:10.412Z,24.90
2024-03-02T02:34:37.484Z,25.67
2024-03-02T02:37:04.542Z,25.50
2024-03-02T02:39:31.627Z,25.75
2024-03-02T02:42:01.617Z,25.60
2024-03-02T02:44:28.460Z,26.33
2024-03-02T02:46:55.292Z,25.27
2024-03-02T02:49:22.092Z,25.40
2024-03-02T02:51:49.009Z,26.02
2024-03-02T02:54:15.957Z,25.90
2024-03-02T02:56:42.789Z,26.55
2024-03-02T02:59:09.669Z,27.23
2024-03-02T03:01:36.608Z,26.25
2024-03-02T03:04:03.533Z,25.73
2024-03-02T03:06:30.348Z,26.08
2024-03-02T03:08:57.269Z,26.60
2024-03-02T03:11:26.033Z,25.63
2024-03-02T03:13:54.168Z,25.92
2024-03-02T03:16:21.087Z,26.65
2024-03-02T03:18:48.044Z,27.05
2024-03-02T03:21:14.938Z,27.15
2024-03-02T03:23:41.752Z,26.30
2024-03-02T03:26:08.615Z,26.08
2024-03-02T03:28:35.528Z,28.13
2024-03-02T03:31:03.405Z,26.55
2024-03-02T03:33:30.316Z,26.95
2024-03-02T03:35:57.192Z,25.20
2024-03-02T03:38:24.062Z,24.85
2024-03-02T03:40:51.005Z,26.30
2024-03-02T03:43:18.087Z,26.13
2024-03-02T03:45:45.419Z,26.08
2024-03-02T03:48:12.388Z,25.85
2024-03-02T03:50:39.329Z,26.33
2024-03-02T03:53:06.202Z,26.13
2024-03-02T03:55:33.076Z,27.48
2024-03-02T03:58:00.114Z,26.08
2024-03-02T04:00:27.248Z,28.58
2024-03-02T04:02:54.129Z,27.80
2024-03-02T04:05:20.948Z,26.73
2024-03-02T04:07:47.808Z,27.30
2024-03-02T04:10:14.965Z,28.15
2024-03-02T04:12:41.890Z,26.08
2024-03-02T04:15:09.521Z,25.83
2024-03-02T04:17:37.217Z,27.58
2024-03-02T04:20:06.480Z,28.48
2024-03-02T04:22:34.775Z,27.95
2024-03-02T04:25:02.448Z,27.23
2024-03-02T04:27:30.198Z,27.15
2024-03-02T04:29:57.084Z,27.73
2024-03-02T04:32:23.992Z,27.05
2024-03-02T04:34:50.833Z,26.45
2024-03-02T04:37:17.791Z,28.23
2024-03-02T04:39:44.798Z,27.98
2024-03-02T04:42:11.762Z,29.13
2024-03-02T04:44:39.447Z,29.38
2024-03-02T04:47:06.509Z,27.83
2024-03-02T04:49:33.535Z,28.67
2024-03-02T04:52:00.642Z,27.50
2024-03-02T04:54:28.098Z,26.88
2024-03-02T04:56:54.967Z,26.88
2024-03-02T04:59:21.990Z,27.90
2024-03-02T05:01:49.101Z,25.80
2024-03-02T05:04:16.074Z,26.45
2024-03-02T05:06:43.014Z,26.98
2024-03-02T05:09:10.807Z,27.35
2024-03-02T05:11:40.491Z,26.23
2024-03-02T05:14:07.935Z,27.05
2024-03-02T05:16:35.766Z,30.15
2024-03-02T05:19:02.907Z,31.42
2024-03-02T05:21:29.846Z,32.72
2024-03-02T05:23:56.718Z,32.47
2024-03-02T05:26:23.751Z,37.03
2024-03-02T05:28:50.621Z,36.15
2024-03-02T05:31:17.840Z,35.70
2024-03-02T05:33:45.354Z,31.55
2024-03-02T05:36:12.335Z,29.92
2024-03-02T05:38:39.305Z,28.92
2024-03-02T05:41:06.182Z,29.35
2024-03-02T05:43:33.089Z,27.92
2024-03-02T05:46:00.053Z,28.80
2024-03-02T05:48:26.896Z,27.88
2024-03-02T05:50:53.742Z,30.13
2024-03-02T05:53:20.760Z,27.73
2024-03-02T05:55:48.242Z,29.83
2024-03-02T05:58:32.469Z,29.73
2024-03-02T06:00:59.606Z,28.55
2024-03-02T06:03:27.163Z,28.77
2024-03-02T06:05:54.212Z,28.75
2024-03-02T06:08:21.437Z,28.83
2024-03-02T06:10:48.328Z,28.05
2024-03-02T06:13:15.258Z,29.23
2024-03-02T06:15:42.594Z,28.20
2024-03-02T06:18:09.571Z,28.73
2024-03-02T06:20:37.216Z,30.33
2024-03-02T06:23:05.488Z,30.30
2024-03-02T06:25:32.440Z,29.48
2024-03-02T06:27:59.652Z,30.48
2024-03-02T06:30:26.684Z,31.95
2024-03-02T06:32:53.681Z,30.73
2024-03-02T06:35:20.713Z,29.90
2024-03-02T06:37:47.563Z,29.42
2024-03-02T06:40:14.936Z,29.77
2024-03-02T06:42:41.914Z,30.35
2024-03-02T06:45:09.042Z,30.83
2024-03-02T06:47:35.934Z,29.63
2024-03-02T06:50:02.963Z,32.05
2024-03-02T06:52:31.141Z,30.55
2024-03-02T06:54:58.077Z,30.80
2024-03-02T06:57:25.817Z,31.95
2024-03-02T06:59:55.126Z,30.65
2024-03-02T07:02:22.298Z,29.63
2024-03-02T07:04:49.228Z,31.52
2024-03-02T07:07:16.046Z,30.60
2024-03-02T07:09:42.924Z,31.42
2024-03-02T07:12:09.973Z,31.70
2024-03-02T07:15:06.052Z,32.03
2024-03-02T07:17:34.149Z,33.47
2024-03-02T07:20:01.162Z,33.90
2024-03-02T07:22:28.071Z,32.45
2024-03-02T07:24:54.999Z,32.53
2024-03-02T07:27:21.948Z,32.63
2024-03-02T07:29:48.795Z,32.97
2024-03-02T07:32:16.146Z,32.72
2024-03-02T07:34:42.950Z,32.00
2024-03-02T07:37:10.003Z,30.38
2024-03-02T07:39:36.964Z,31.30
2024-03-02T07:42:03.928Z,32.90
2024-03-02T07:44:30.831Z,32.67
2024-03-02T07:47:01.099Z,32.63
2024-03-02T07:49:28.102Z,32.03
2024-03-02T07:51:55.067Z,31.17
2024-03-02T07:54:21.999Z,32.17
2024-03-02T07:56:48.861Z,34.25
2024-03-02T07:59:15.702Z,34.35
2024-03-02T08:01:42.934Z,34.28
2024-03-02T08:04:10.021Z,34.33
2024-03-02T08:06:37.014Z,36.08
2024-03-02T08:09:10.340Z,35.00
2024-03-02T08:11:38.521Z,33.85
2024-03-02T08:14:05.836Z,34.70
2024-03-02T08:16:33.953Z,34.50
2024-03-02T08:19:01.104Z,36.38
2024-03-02T08:21:31.548Z,35.05
2024-03-02T08:23:59.315Z,35.58
2024-03-02T08:26:26.263Z,34.40
2024-03-02T08:28:53.176Z,32.65
2024-03-02T08:31:20.122Z,34.38
2024-03-02T08:33:47.146Z,34.95
2024-03-02T08:36:14.059Z,36.28
2024-03-02T08:38:41.204Z,35.05
2024-03-02T08:41:08.609Z,35.13
2024-03-02T08:43:35.634Z,33.80
2024-03-02T08:46:03.087Z,33.63
2024-03-02T08:48:30.097Z,33.42
2024-03-02T08:50:57.023Z,31.60
2024-03-02T08:53:23.938Z,31.25
2024-03-02T08:55:51.199Z,32.95
2024-03-02T08:58:18.195Z,31.98
2024-03-02T09:00:45.492Z,29.50
2024-03-02T09:03:12.583Z,31.38
2024-03-02T09:05:39.447Z,31.08
2024-03-02T09:08:06.626Z,30.80
2024-03-02T09:10:34.174Z,28.60
2024-03-02T09:13:01.387Z,29.20
2024-03-02T09:15:28.429Z,28.42
2024-03-02T09:17:55.487Z,26.65
2024-03-02T09:20:22.448Z,26.55
2024-03-02T09:22:50.059Z,26.08
2024-03-02T09:25:17.397Z,26.80
2024-03-02T09:27:45.255Z,28.02
2024-03-02T09:30:12.725Z,28.52
2024-03-02T09:32:39.849Z,27.92
2024-03-02T09:35:07.329Z,28.70
2024-03-02T09:37:34.315Z,27.90
2024-03-02T09:40:01.924Z,28.73
2024-03-02T09:42:29.366Z,28.25
2024-03-02T09:44:56.454Z,26.35
2024-03-02T09:47:23.334Z,26.50
2024-03-02T09:49:50.578Z,28.17
2024-03-02T09:52:17.526Z,28.13
2024-03-02T09:54:44.860Z,26.40
2024-03-02T09:57:11.851Z,24.55
2024-03-02T09:59:38.882Z,25.10
2024-03-02T10:02:08.311Z,26.00
2024-03-02T10:04:38.545Z,26.42
2024-03-02T10:07:16.372Z,26.15
2024-03-02T10:09:46.300Z,26.98
2024-03-02T10:12:15.418Z,25.30
2024-03-02T10:14:43.022Z,27.65
2024-03-02T10:17:12.112Z,26.90
2024-03-02T10:19:44.478Z,26.48
2024-03-02T10:22:11.851Z,26.00
2024-03-02T10:24:42.602Z,25.98
2024-03-02T10:27:17.540Z,25.67
2024-03-02T10:29:48.141Z,26.70
2024-03-02T10:32:16.073Z,26.38
2024-03-02T10:34:45.358Z,27.98
2024-03-02T10:37:13.475Z,26.58
2024-03-02T10:39:41.975Z,26.17
2024-03-02T10:42:09.366Z,25.67
2024-03-02T10:44:36.687Z,25.80
2024-03-02T10:47:05.712Z,26.17
2024-03-02T10:49:34.021Z,24.83
2024-03-02T10:52:01.425Z,25.95
2024-03-02T10:54:31.104Z,24.80
2024-03-02T10:57:01.483Z,23.92
2024-03-02T10:59:41.001Z,26.42
2024-03-02T11:02:12.219Z,24.83
2024-03-02T11:04:42.048Z,25.60
2024-03-02T11:07:13.739Z,24.90
2024-03-02T11:12:21.025Z,24.25
2024-03-02T11:14:48.037Z,24.92
2024-03-02T11:17:19.192Z,23.50
2024-03-02T11:19:47.319Z,25.40
2024-03-02T11:22:14.845Z,24.15
2024-03-02T11:24:50.338Z,23.60
2024-03-02T11:27:46.346Z,22.73
2024-03-02T11:30:33.995Z,21.52
2024-03-02T11:33:04.559Z,22.40
2024-03-02T11:35:32.373Z,23.95
2024-03-02T11:38:00.120Z,23.70
2024-03-02T11:40:27.412Z,23.33
2024-03-02T11:42:54.847Z,21.85
2024-03-02T11:45:25.875Z,21.05
2024-03-02T11:47:55.364Z,22.43
2024-03-02T11:50:36.645Z,21.23
2024-03-02T11:53:07.241Z,19.77
2024-03-02T11:55:37.160Z,19.23
2024-03-02T11:58:05.777Z,21.35
2024-03-02T12:00:32.886Z,20.60
2024-03-02T12:03:13.874Z,21.15
2024-03-02T12:05:41.086Z,21.23
2024-03-02T12:08:08.606Z,19.45
2024-03-02T12:10:37.372Z,20.63
2024-03-02T12:13:06.345Z,21.48
2024-03-02T12:15:35.790Z,21.60
2024-03-02T12:18:03.162Z,20.58
2024-03-02T12:20:31.785Z,19.38
2024-03-02T12:23:05.980Z,19.08
2024-03-02T12:25:37.858Z,17.63
2024-03-02T12:28:05.634Z,16.13
2024-03-02T12:30:37.039Z,17.30
2024-03-02T12:33:04.494Z,17.63
2024-03-02T12:35:31.526Z,15.88
2024-03-02T12:37:59.672Z,16.13
2024-03-02T12:40:26.705Z,15.48
2024-03-02T12:42:53.730Z,16.67
2024-03-02T12:45:25.747Z,17.17
2024-03-02T12:47:53.381Z,15.65
2024-03-02T12:50:21.002Z,17.42
2024-03-02T12:52:57.069Z,17.58
2024-03-02T12:55:25.075Z,17.25
2024-03-02T12:57:55.516Z,17.85
2024-03-02T13:00:24.080Z,18.00
2024-03-02T13:02:52.820Z,18.98
2024-03-02T13:05:21.186Z,18.33
2024-03-02T13:07:50.128Z,17.75
2024-03-02T13:10:19.236Z,18.95
2024-03-02T13:12:46.801Z,18.77
2024-03-02T13:15:17.441Z,17.65
2024-03-02T13:17:47.732Z,16.02
2024-03-02T13:20:16.142Z,14.90
2024-03-02T13:22:43.395Z,14.50
2024-03-02T13:25:12.280Z,13.65
2024-03-02T13:27:39.776Z,12.70
2024-03-02T13:30:07.412Z,12.18
2024-03-02T13:32:34.468Z,11.32
2024-03-02T13:35:01.723Z,11.63
2024-03-02T13:37:28.694Z,10.57
2024-03-02T13:39:55.789Z,9.52
2024-03-02T13:42:23.021Z,9.38
2024-03-02T13:44:52.162Z,9.68
2024-03-02T13:47:19.100Z,11.23
2024-03-02T13:49:48.229Z,10.45
2024-03-02T13:52:18.057Z,10.73
2024-03-02T13:54:47.776Z,10.13
2024-03-02T13:57:15.873Z,10.63
2024-03-02T13:59:44.810Z,10.43
2024-03-02T14:02:13.381Z,11.63
2024-03-02T14:04:40.951Z,11.80
2024-03-02T14:07:08.894Z,11.35
2024-03-02T14:09:36.397Z,10.75
2024-03-02T14:12:04.102Z,11.15
2024-03-02T14:14:31.047Z,11.05
2024-03-02T14:17:01.542Z,12.07
2024-03-02T14:19:28.787Z,11.40
2024-03-02T14:21:55.864Z,11.88
2024-03-02T14:24:26.908Z,12.73
2024-03-02T14:27:00.737Z,13.10
2024-03-02T14:29:30.876Z,12.18
2024-03-02T14:31:57.792Z,12.63
2024-03-02T14:34:24.686Z,12.40
2024-03-02T14:36:51.862Z,12.18
2024-03-02T14:39:20.772Z,12.27
2024-03-02T14:41:47.945Z,11.85
2024-03-02T14:44:14.847Z,12.63
2024-03-02T14:46:42.940Z,12.50
2024-03-02T14:49:11.953Z,11.77
2024-03-02T14:51:39.046Z,11.68
2024-03-02T14:54:06.160Z,11.32
2024-03-02T14:56:33.098Z,10.65
2024-03-02T14:58:59.995Z,11.90
2024-03-02T15:01:27.190Z,11.25
2024-03-02T15:03:54.061Z,9.60
2024-03-02T15:06:21.011Z,10.52
2024-03-02T15:11:15.646Z,10.98
2024-03-02T15:13:43.625Z,9.95
2024-03-02T15:16:10.887Z,10.38
2024-03-02T15:18:38.069Z,11.05
2024-03-02T15:21:05.514Z,10.50
2024-03-02T15:23:32.436Z,10.95
2024-03-02T15:25:59.516Z,10.57
2024-03-02T15:28:26.377Z,10.57
2024-03-02T15:30:54.184Z,10.98
2024-03-02T15:33:26.370Z,12.10
2024-03-02T15:35:55.220Z,12.27
2024-03-02T15:38:32.502Z,13.70
2024-03-02T15:41:01.462Z,13.35
2024-03-02T15:43:28.395Z,13.45
2024-03-02T15:45:55.475Z,13.48
2024-03-02T15:48:22.432Z,13.57
2024-03-02T15:50:51.247Z,15.15
2024-03-02T15:53:18.121Z,13.48
2024-03-02T15:55:45.336Z,13.63
2024-03-02T15:58:12.397Z,13.52
2024-03-02T16:00:39.519Z,14.63
2024-03-02T16:03:06.554Z,14.95
2024-03-02T16:05:33.492Z,15.27
2024-03-02T16:08:00.347Z,15.93
2024-03-02T16:10:28.141Z,16.05
2024-03-02T16:12:56.977Z,16.70
2024-03-02T16:15:24.220Z,16.40
2024-03-02T16:17:51.148Z,17.05
2024-03-02T16:20:18.108Z,17.88
2024-03-02T16:22:44.996Z,17.35
2024-03-02T16:25:12.073Z,15.55
2024-03-02T16:27:39.492Z,15.75
2024-03-02T16:30:07.704Z,16.00
2024-03-02T16:32:34.931Z,16.33
2024-03-02T16:35:01.950Z,17.23
2024-03-02T16:37:30.819Z,17.20
2024-03-02T16:39:58.090Z,17.58
2024-03-02T16:42:25.744Z,18.10
2024-03-02T16:44:56.088Z,17.00
2024-03-02T16:47:27.626Z,17.80
2024-03-02T16:49:56.835Z,18.50
2024-03-02T16:52:29.443Z,19.80
2024-03-02T16:54:57.040Z,20.10
2024-03-02T16:57:24.985Z,19.83
2024-03-02T16:59:52.222Z,22.05
2024-03-02T17:02:21.318Z,21.88
2024-03-02T17:04:48.673Z,21.77
2024-03-02T17:07:15.898Z,20.63
2024-03-02T17:09:43.057Z,20.30
2024-03-02T17:12:10.467Z,21.08
2024-03-02T17:14:37.922Z,20.83
2024-03-02T17:17:05.125Z,19.63
2024-03-02T17:19:32.103Z,21.38
2024-03-02T17:21:59.015Z,20.63
2024-03-02T17:24:26.498Z,20.17
2024-03-02T17:26:53.975Z,21.08
2024-03-02T17:29:21.478Z,20.77
2024-03-02T17:31:48.474Z,20.42
2024-03-02T17:34:15.622Z,20.05
2024-03-02T17:36:43.557Z,19.33
2024-03-02T17:39:11.188Z,20.92
2024-03-02T17:41:39.724Z,21.30
2024-03-02T17:44:07.442Z,19.63
2024-03-02T17:46:34.670Z,19.33
2024-03-02T17:49:02.607Z,18.40
2024-03-02T17:51:30.308Z,18.40
2024-03-02T17:53:57.737Z,18.90
2024-03-02T17:56:25.195Z,18.70
2024-03-02T17:58:52.874Z,18.52
2024-03-02T18:01:22.729Z,17.08
2024-03-02T18:03:50.622Z,17.77
2024-03-02T18:06:19.277Z,17.90
2024-03-02T18:08:50.430Z,16.85
2024-03-02T18:11:19.689Z,16.48
2024-03-02T18:13:47.727Z,16.90
2024-03-02T18:16:19.231Z,16.20
2024-03-02T18:18:49.613Z,15.57
2024-03-02T18:21:17.073Z,16.25
2024-03-02T18:23:44.168Z,14.65
2024-03-02T18:26:11.290Z,14.63
2024-03-02T18:28:41.016Z,15.73
2024-03-02T18:31:08.544Z,14.30
2024-03-02T18:33:35.769Z,13.85
2024-03-02T18:36:04.975Z,14.98
2024-03-02T18:38:32.897Z,13.57
2024-03-02T18:41:00.629Z,14.35
2024-03-02T18:43:28.210Z,13.70
2024-03-02T18:45:57.035Z,13.77
2024-03-02T18:48:24.349Z,13.70
2024-03-02T18:50:51.864Z,14.38
2024-03-02T18:53:18.993Z,14.70
2024-03-02T18:55:46.107Z,13.88
2024-03-02T18:58:13.090Z,13.90
2024-03-02T19:00:41.216Z,14.93
2024-03-02T19:03:11.033Z,14.27
2024-03-02T19:05:39.002Z,13.02
2024-03-02T19:08:06.869Z,14.38
2024-03-02T19:10:34.563Z,14.15
2024-03-02T19:13:01.716Z,13.98
2024-03-02T19:15:28.966Z,14.23
2024-03-02T19:17:55.948Z,13.75
2024-03-02T19:20:24.593Z,14.95
2024-03-02T19:22:52.545Z,14.82
2024-03-02T19:25:21.523Z,14.68
2024-03-02T19:27:48.524Z,16.58
2024-03-02T19:30:16.069Z,15.45
2024-03-02T19:32:43.529Z,15.20
2024-03-02T19:35:13.161Z,15.13
2024-03-02T19:37:42.020Z,16.48
2024-03-02T19:40:11.149Z,16.38
2024-03-02T19:42:38.449Z,17.05
2024-03-02T19:45:06.558Z,16.42
2024-03-02T19:47:33.775Z,16.98
2024-03-02T19:50:00.802Z,17.70
2024-03-02T19:52:28.904Z,16.73
2024-03-02T19:54:55.919Z,17.55
2024-03-02T19:57:24.808Z,17.48
2024-03-02T19:59:52.034Z,18.30
2024-03-02T20:02:21.295Z,18.27
2024-03-02T20:04:48.732Z,18.75
2024-03-02T20:07:16.518Z,19.02
2024-03-02T20:09:43.447Z,17.23
2024-03-02T20:12:10.670Z,18.35
2024-03-02T20:14:37.644Z,18.67
2024-03-02T20:17:04.753Z,17.75
2024-03-02T20:19:31.557Z,18.33
2024-03-02T20:21:59.698Z,18.55
2024-03-02T20:24:26.688Z,19.13
2024-03-02T20:26:53.671Z,18.60
2024-03-02T20:29:20.622Z,17.77
2024-03-02T20:31:48.171Z,18.38
2024-03-02T20:34:17.879Z,17.77
2024-03-02T20:36:45.888Z,17.50
2024-03-02T20:39:12.797Z,18.15
2024-03-02T20:41:39.676Z,16.95
2024-03-02T20:44:07.081Z,17.73
2024-03-02T20:46:33.915Z,17.40
2024-03-02T20:49:01.378Z,17.08
2024-03-02T20:51:30.892Z,16.60
2024-03-02T20:53:58.337Z,16.88
2024-03-02T20:56:27.571Z,16.67
2024-03-02T20:58:54.583Z,16.77
2024-03-02T21:01:22.586Z,17.42
2024-03-02T21:03:49.580Z,17.30
2024-03-02T21:06:16.631Z,15.75
2024-03-02T21:08:43.495Z,16.30
2024-03-02T21:11:10.647Z,16.23
2024-03-02T21:13:38.087Z,15.90
2024-03-02T21:16:05.375Z,16.23
2024-03-02T21:18:32.409Z,15.68
2024-03-02T21:20:59.346Z,15.40
2024-03-02T21:23:26.218Z,15.13
2024-03-02T21:25:53.146Z,15.02
2024-03-02T21:28:20.348Z,16.17
2024-03-02T21:30:47.194Z,15.02
2024-03-02T21:33:14.221Z,14.93
2024-03-02T21:35:41.077Z,15.63
2024-03-02T21:38:08.620Z,16.58
2024-03-02T21:40:35.556Z,15.95
2024-03-02T21:43:02.587Z,15.73
2024-03-02T21:45:29.612Z,15.48
2024-03-02T21:47:56.536Z,14.90
2024-03-02T21:50:23.441Z,16.30
2024-03-02T21:52:50.484Z,16.52
2024-03-02T21:55:17.514Z,15.65
2024-03-02T21:57:45.630Z,17.88
2024-03-02T22:00:12.730Z,16.13
2024-03-02T22:02:40.110Z,16.10
2024-03-02T22:05:08.231Z,16.55
2024-03-02T22:07:35.328Z,14.93
2024-03-02T22:10:02.460Z,14.32
2024-03-02T22:12:31.025Z,14.75
2024-03-02T22:14:57.974Z,14.65
2024-03-02T22:17:26.864Z,15.80
2024-03-02T22:19:53.712Z,14.38
2024-03-02T22:22:23.247Z,14.82
2024-03-02T22:24:50.180Z,14.75
2024-03-02T22:27:17.001Z,15.48
2024-03-02T22:29:43.964Z,16.02
2024-03-02T22:32:10.819Z,14.43
2024-03-02T22:34:37.637Z,16.27
2024-03-02T22:37:04.793Z,14.45
2024-03-02T22:39:31.836Z,15.00
2024-03-02T22:41:58.712Z,13.75
2024-03-02T22:44:25.616Z,12.88
2024-03-02T22:46:52.648Z,14.55
2024-03-02T22:49:19.660Z,13.73
2024-03-02T22:51:46.719Z,14.15
2024-03-02T22:54:13.586Z,12.43
2024-03-02T22:56:40.484Z,11.70
2024-03-02T22:59:07.325Z,12.48
2024-03-02T23:01:36.058Z,12.55
2024-03-02T23:04:04.357Z,11.93
2024-03-02T23:06:31.289Z,11.48
2024-03-02T23:08:58.117Z,11.60
2024-03-02T23:11:25.095Z,11.85
2024-03-02T23:13:52.018Z,12.07
2024-03-02T23:16:18.997Z,11.88
2024-03-02T23:18:45.932Z,11.57
2024-03-02T23:21:12.937Z,11.38
2024-03-02T23:23:39.772Z,11.50
2024-03-02T23:26:07.643Z,11.25
2024-03-02T23:28:34.636Z,11.70
2024-03-02T23:31:01.669Z,11.38
2024-03-02T23:33:28.518Z,11.20
2024-03-02T23:35:55.499Z,10.90
2024-03-02T23:38:22.348Z,10.43
2024-03-02T23:40:49.153Z,10.77
2024-03-02T23:43:16.173Z,10.68
2024-03-02T23:45:43.225Z,9.98
2024-03-02T23:48:11.718Z,10.48
2024-03-02T23:50:38.749Z,11.23
2024-03-02T23:53:05.697Z,10.30
2024-03-02T23:55:43.016Z,9.55
2024-03-02T23:58:18.572Z,10.68
